Lowndesville, South Carolina
Current Conditions -  °F | °C
As of 1:56 PM on Friday 24 Oct 2014 (Local Time) from KAND Reporting Station
Clear Clear  
Wind Chill: 68°   Ceiling: Unl
Heat Index: 68°   Visibility: 10mi
Dew Point: 43°   Wind: 3mph
Humidity: 40%   Direction: NA
Pressure: 30.04"   Gusts: NA
Location:  34.21°N, 82.65°W
Report Text: KAND 241756Z AUTO VRB03KT 10SM CLR 20/06 A3004 RMK AO2 SLP167 T02000061 10200 20050 58018
Loading
Personal Weather Stations






























Interactive Weather Map
Tropical Storm Tracking
New forecast layout! Learn more

10-Day Weather Forecast

Advertisements
Track Severe Weather on mobile